Jepson Prairie Reserve, California Weather observations

Data are for 10 minute period ending at time listed.
 Day   Time   Solar   Ave.   Ave.  Ave.  Vector  Max.   Baro.   Total    
  of    of     Rad.   Air    Rel.  Wind   Wind   Wind  Press.  Precip.   
Year   Day            Temp.  Hum.  Speed  Dir.   Gust                    
2016   (PST)  Kw/m2    F      %     mph   deg.    mph    mb.     in.     
-------------------------------------------------------------------------
 182    9:10   0.71   74.9    49    9.0   224    12.1   1009.5    0.00 
 182    9:20   0.74   75.7    48    8.0   223    11.4   1009.5    0.00 
 182    9:30   0.76   76.8    46    7.0   237    11.1   1009.5    0.00 
 182    9:40   0.79   78.0    44    7.1   228    10.4   1009.1    0.00 
 182    9:50   0.81   79.4    42    7.1   226    12.7   1009.1    0.00 
 182   10:00   0.83   80.6    41    7.1   234    12.8   1008.8    0.00 
 182   10:10   0.85   81.8    41    8.4   224    12.7   1008.8    0.00 
 182   10:20   0.86   82.9    40    8.0   209    13.3   1008.8    0.00 
 182   10:30   0.88   84.3    38    6.2   207     9.3   1008.5    0.00 
 182   10:40   0.89   84.9    38    6.9   215    10.4   1008.5    0.00 
 182   10:50   0.91   85.3    38    6.9   205    11.3   1008.5    0.00 
 182   11:00   0.92   86.4    36    6.1   214    11.5   1008.1    0.00 
 182   11:10   0.93   87.0    35    6.3   206    11.0   1008.1    0.00 
 182   11:20   0.94   88.8    33    5.3   231    12.2   1007.8    0.00 
 182   11:30   0.94   89.2    32    5.5   230     9.6   1007.8    0.00 
 182   11:40   0.95   90.8    31    5.5   218    10.5   1007.8    0.00 
 182   11:50   0.95   90.9    31    5.0   182     8.6   1007.8    0.00 
 182   12:00   0.95   92.3    30    6.2   209    12.6   1007.5    0.00 
 182   12:10   0.95   93.6    29    7.4   209    14.4   1007.5    0.00 
 182   12:20   0.95   93.0    30    8.7   208    13.3   1007.5    0.00 
 182   12:30   0.95   93.4    29    8.2   199    14.0   1007.1    0.00 
 182   12:40   0.95   93.7    29    9.4   202    13.0   1007.1    0.00 
 182   12:50   0.94   93.8    29    8.4   220    14.5   1007.1    0.00 
 182   13:00   0.94   94.7    29    9.9   207    13.8   1006.8    0.00 
 182   13:10   0.93   94.9    29   10.8   204    16.1   1006.8    0.00 
 182   13:20   0.92   95.0    29    9.5   208    14.5   1006.8    0.00 
 182   13:30   0.91   95.4    28   10.8   212    15.3   1006.4    0.00 
 182   13:40   0.91   96.0    28   11.0   218    17.0   1006.4    0.00 
 182   13:50   0.89   95.6    27   10.8   232    17.4   1006.4    0.00 
 182   14:00   0.88   95.7    27   10.8   232    15.8   1006.4    0.00 
 182   14:10   0.86   96.1    26   10.9   232    16.4   1006.1    0.00 
 182   14:20   0.84   95.9    26   10.9   226    17.2   1006.1    0.00 
 182   14:30   0.82   96.2    26   12.2   226    17.7   1006.1    0.00 
 182   14:40   0.80   96.3    25   13.7   220    18.2   1006.1    0.00 
 182   14:50   0.78   97.0    25   14.0   220    19.4   1005.8    0.00 
 182   15:00   0.76   97.2    25   15.1   224    22.3   1005.8    0.00 
 182   15:10   0.73   96.9    26   15.9   224    20.8   1005.8    0.00 
 182   15:20   0.71   96.0    26   18.1   231    22.5   1005.4    0.00 
 182   15:30   0.68   95.9    26   17.2   222    21.0   1005.4    0.00 
 182   15:40   0.66   96.0    26   17.9   222    22.3   1005.1    0.00 
 182   15:50   0.63   95.9    25   19.3   220    23.8   1005.1    0.00 
 182   16:00   0.60   95.9    26   19.0   220    23.4   1005.1    0.00 
 182   16:10   0.57   96.3    26   18.4   220    22.9   1004.7    0.00 
 182   16:20   0.54   96.0    27   17.9   225    22.9   1004.7    0.00 
 182   16:30   0.51   95.4    28   18.6   224    22.7   1004.7    0.00 
 182   16:40   0.48   94.8    29   18.8   225    22.9   1004.4    0.00 
 182   16:50   0.44   94.2    29   18.5   224    22.7   1004.4    0.00 
 182   17:00   0.40   94.0    29   18.8   222    22.7   1004.1    0.00 
 182   17:10   0.38   93.1    30   19.3   224    23.1   1004.1    0.00 
 182   17:20   0.34   92.3    30   18.5   222    23.3   1004.1    0.00 
 182   17:30   0.31   91.8    30   17.9   221    22.0   1004.1    0.00 
 182   17:40   0.28   91.3    30   18.3   216    23.2   1003.7    0.00 
 182   17:50   0.25   90.6    30   17.7   217    22.7   1003.7    0.00 
 182   18:00   0.22   89.7    31   18.0   212    21.9   1003.7    0.00 
 182   18:10   0.19   88.8    31   17.9   207    22.9   1004.1    0.00 
 182   18:20   0.16   87.4    32   20.0   207    25.0   1004.1    0.00 
 182   18:30   0.13   86.8    32   19.5   209    24.3   1003.7    0.00 
 182   18:40   0.10   85.7    34   19.2   211    23.9   1003.7    0.00 
 182   18:50   0.07   84.9    35   17.2   207    21.4   1003.7    0.00 
 182   19:00   0.06   83.8    36   15.5   201    20.6   1004.1    0.00 
 182   19:10   0.04   81.7    38   19.0   201    24.0   1004.1    0.00 
 182   19:20   0.02   80.4    40   19.9   206    25.1   1004.1    0.00 
 182   19:30   0.01   79.6    40   20.1   206    25.4   1004.1    0.00 
 182   19:40   0.00   79.0    41   19.8   208    24.7   1004.1    0.00 
 182   19:50   0.00   78.5    42   18.9   208    23.0   1004.1    0.00 
 182   20:00   0.00   77.8    44   16.7   204    20.7   1004.4    0.00 
 182   20:10   0.00   76.6    46   17.2   202    22.6   1004.4    0.00 
 182   20:20   0.00   75.8    49   16.1   198    21.0   1004.4    0.00 
 182   20:30   0.00   74.9    51   16.5   200    20.4   1004.7    0.00 
 182   20:40   0.00   74.8    51   17.2   202    21.8   1004.7    0.00 
 182   20:50   0.00   74.4    51   18.2   201    22.2   1004.7    0.00 
 182   21:00   0.00   74.0    52   17.5   203    22.6   1005.1    0.00 
 182   21:10   100.00  99999.0   99999  99999.0   99999   99999.0   99999.0   99999.00 
 182   21:20   100.00  99999.0   99999  99999.0   99999   99999.0   99999.0   99999.00 
 182   21:30   100.00  99999.0   99999  99999.0   99999   99999.0   99999.0   99999.00 
 182   21:40   100.00  99999.0   99999  99999.0   99999   99999.0   99999.0   99999.00 
 182   21:50   100.00  99999.0   99999  99999.0   99999   99999.0   99999.0   99999.00 
 182   22:00   100.00  99999.0   99999  99999.0   99999   99999.0   99999.0   99999.00 
 182   22:10   100.00  99999.0   99999  99999.0   99999   99999.0   99999.0   99999.00 
 182   22:20   100.00  99999.0   99999  99999.0   99999   99999.0   99999.0   99999.00 
 182   22:30   100.00  99999.0   99999  99999.0   99999   99999.0   99999.0   99999.00 
 182   22:40   100.00  99999.0   99999  99999.0   99999   99999.0   99999.0   99999.00 
 182   22:50   100.00  99999.0   99999  99999.0   99999   99999.0   99999.0   99999.00 
 182   23:00   100.00  99999.0   99999  99999.0   99999   99999.0   99999.0   99999.00 
 182   23:10   100.00  99999.0   99999  99999.0   99999   99999.0   99999.0   99999.00 
 182   23:20   100.00  99999.0   99999  99999.0   99999   99999.0   99999.0   99999.00 
 182   23:30   100.00  99999.0   99999  99999.0   99999   99999.0   99999.0   99999.00 
 182   23:40   100.00  99999.0   99999  99999.0   99999   99999.0   99999.0   99999.00 
 182   23:50   100.00  99999.0   99999  99999.0   99999   99999.0   99999.0   99999.00 
 183    0:00   100.00  99999.0   99999  99999.0   99999   99999.0   99999.0   99999.00 
 183    0:10   100.00  99999.0   99999  99999.0   99999   99999.0   99999.0   99999.00 
 183    0:20   100.00  99999.0   99999  99999.0   99999   99999.0   99999.0   99999.00 
 183    0:30   100.00  99999.0   99999  99999.0   99999   99999.0   99999.0   99999.00 
 183    0:40   100.00  99999.0   99999  99999.0   99999   99999.0   99999.0   99999.00 
 183    0:50   100.00  99999.0   99999  99999.0   99999   99999.0   99999.0   99999.00 
 183    1:00   100.00  99999.0   99999  99999.0   99999   99999.0   99999.0   99999.00 
 183    1:10   100.00  99999.0   99999  99999.0   99999   99999.0   99999.0   99999.00 
 183    1:20   0.00   63.1    63   18.8   219    23.8   1004.4    0.00 
 183    1:30   0.00   63.4    62   16.6   216    24.1   1004.4    0.00 
 183    1:40   0.00   63.4    62   14.4   214    19.2   1004.4    0.00 
 183    1:50   0.00   63.6    63   15.4   213    19.6   1004.4    0.00 
 183    2:00   0.00   63.8    64   15.3   214    19.2   1004.4    0.00 
 183    2:10   0.00   63.2    65   14.7   216    18.8   1004.4    0.00 
 183    2:20   0.00   63.2    64   14.5   212    18.0   1004.4    0.00 
 183    2:30   0.00   62.5    66   13.8   214    17.2   1004.7    0.00 
 183    2:40   0.00   62.1    66   14.4   221    19.0   1004.7    0.00 
 183    2:50   0.00   61.5    68   16.7   224    22.2   1004.7    0.00 
 183    3:00   0.00   61.4    68   17.2   226    22.1   1004.7    0.00 
 183    3:10   0.00   61.0    69   17.9   228    22.8   1004.7    0.00 
 183    3:20   0.00   60.5    71   18.6   224    23.2   1004.7    0.00 
 183    3:30   0.00   60.0    72   19.3   220    24.3   1004.7    0.00 
 183    3:40   0.00   59.6    73   19.7   221    26.4   1004.7    0.00 
 183    3:50   0.00   59.6    73   20.2   220    26.2   1004.7    0.00 
 183    4:00   0.00   59.1    74   19.2   218    24.9   1004.7    0.00 
 183    4:10   0.00   59.0    74   20.5   224    30.0   1004.7    0.00 
 183    4:20   0.00   59.3    73   20.4   222    28.1   1005.1    0.00 
 183    4:30   0.00   58.9    74   20.4   224    27.2   1005.1    0.00 
 183    4:40   0.00   58.9    74   19.4   224    25.4   1005.1    0.00 
 183    4:50   0.00   58.8    75   19.4   226    25.6   1005.4    0.00 
 183    5:00   0.01   58.8    75   18.8   221    24.3   1005.4    0.00 
 183    5:10   0.02   58.8    76   18.6   224    24.9   1005.4    0.00 
 183    5:20   0.04   58.9    75   16.7   226    21.9   1005.8    0.00 
 183    5:30   0.06   59.0    75   17.5   224    22.8   1005.8    0.00 
 183    5:40   0.08   59.1    75   17.1   227    21.9   1005.8    0.00 
 183    5:50   0.10   59.6    74   17.0   230    21.9   1005.8    0.00 
 183    6:00   0.13   60.0    73   17.0   228    22.5   1006.1    0.00 
 183    6:10   0.16   60.4    73   17.1   229    21.7   1006.1    0.00 
 183    6:20   0.19   61.0    72   17.8   230    21.9   1006.4    0.00 
 183    6:30   0.22   62.2    70   15.9   228    21.6   1006.4    0.00 
 183    6:40   0.25   62.9    68   16.6   229    22.0   1007.1    0.00 
 183    6:50   0.28   63.2    67   16.6   226    20.8   1007.1    0.00 
 183    7:00   0.32   64.4    65   15.1   221    19.4   1007.5    0.00 
 183    7:10   0.35   65.1    63   17.1   223    22.5   1007.5    0.00 
 183    7:20   0.38   65.7    62   19.0   226    24.2   1007.5    0.00 
 183    7:30   0.41   66.3    61   21.0   229    25.7   1007.5    0.00 
 183    7:40   0.44   67.2    59   18.7   227    22.8   1007.8    0.00 
 183    7:50   0.47   68.8    57   18.0   229    22.5   1007.8    0.00 
 183    8:00   0.50   69.1    56   18.1   226    23.1   1007.8    0.00 
 183    8:10   0.53   70.2    54   17.9   223    21.8   1007.8    0.00 
 183    8:20   0.56   70.8    53   18.5   223    22.6   1007.8    0.00 
 183    8:30   0.59   71.9    52   18.4   224    23.2   1008.1    0.00 
 183    8:40   0.62   72.6    50   18.8   221    22.8   1008.1    0.00 
 183    8:50   0.65   73.5    49   18.4   220    22.6   1008.1    0.00 
 183    9:00   0.67   74.5    48   18.4   225    23.3   1008.1    0.00 

Return to Jepson Prairie Reserve graphs page.


Western Regional Climate Center,wrcc@dri.edu